Kennard Corner, Washington
Current Conditions -  °F | °C
As of 9:53 AM on Thursday 30 Oct 2014 (Local Time) from KPAE Reporting Station
Light Rain Light Rain  
Wind Chill: 58°   Ceiling: 4700
Heat Index: 58°   Visibility: 10mi
Dew Point: 49°   Wind: 7mph
Humidity: 72%   Direction: NA
Pressure: 29.88"   Gusts: NA
Location:  47.7933°N, 122.207°W
Report Text: KPAE 301653Z VRB06KT 10SM -RA OVC047 14/09 A2988 RMK AO2 RAB13 SLP118 P0002 T01440094
Loading
Personal Weather Stations






























Interactive Weather Map
Tropical Storm Tracking
New forecast layout! Learn more

10-Day Weather Forecast

Advertisements
Track Severe Weather on mobile